Time;durP1;ratioP1;P1;durP2;ratioP2;P2;SDS_P1;SDS_P2;PMS_P1;PMS_P2;Temp;Humidity;BMP_temperature;BMP_pressure;BME280_temperature;BME280_humidity;BME280_pressure;Samples;Min_cycle;Max_cycle;Signal;HPM_P1;HPM_P2
2021/06/02 04:44:50;;;;;;;5.72;4.80;;;20.60;37.90;;;;;;4907393;28;20107;-59
2021/06/02 04:47:17;;;;;;;5.60;5.10;;;20.50;37.40;;;;;;4956173;28;20090;-60
2021/06/02 04:50:07;;;;;;;7.35;4.75;;;20.60;37.10;;;;;;4944787;28;20078;-59
2021/06/02 04:52:47;;;;;;;5.88;4.65;;;20.60;36.60;;;;;;4937478;28;20050;-53
2021/06/02 04:55:24;;;;;;;4.45;4.05;;;20.60;36.40;;;;;;4947451;28;20046;-59
2021/06/02 04:58:22;;;;;;;4.38;3.97;;;20.70;36.40;;;;;;4936719;28;20486;-59
2021/06/02 05:01:20;;;;;;;6.00;4.95;;;20.80;36.50;;;;;;4939720;28;20042;-59
2021/06/02 05:03:49;;;;;;;5.28;4.35;;;20.80;36.20;;;;;;4934153;28;20050;-59
2021/06/02 05:06:52;;;;;;;4.45;4.05;;;20.90;36.30;;;;;;4960310;28;20054;-61
2021/06/02 05:09:36;;;;;;;6.05;4.57;;;21.00;35.80;;;;;;4932157;28;20529;-60
2021/06/02 05:12:32;;;;;;;4.55;4.15;;;21.00;35.40;;;;;;4944392;28;20104;-59
2021/06/02 05:15:49;;;;;;;5.30;3.75;;;21.00;35.10;;;;;;4933309;28;20497;-60
2021/06/02 05:18:31;;;;;;;5.40;3.30;;;21.00;34.80;;;;;;4887096;28;20037;-60
2021/06/02 05:23:58;;;;;;;4.40;4.00;;;21.20;35.70;;;;;;4947499;28;20125;-59
2021/06/02 05:27:02;;;;;;;5.07;3.30;;;21.30;35.60;;;;;;4947216;28;20095;-60
2021/06/02 05:29:58;;;;;;;5.97;3.80;;;21.30;35.60;;;;;;4919746;28;20039;-60
2021/06/02 05:32:37;;;;;;;5.38;3.80;;;21.40;35.00;;;;;;4939404;28;20135;-60
2021/06/02 05:35:33;;;;;;;4.45;3.50;;;21.40;34.20;;;;;;4975242;28;20401;-53
2021/06/02 05:38:34;;;;;;;3.75;2.80;;;21.50;34.00;;;;;;4948222;28;20401;-60
2021/06/02 05:41:18;;;;;;;4.25;2.75;;;21.50;34.00;;;;;;4926255;28;20039;-59
2021/06/02 05:44:02;;;;;;;3.28;2.97;;;21.50;33.80;;;;;;4937432;28;20046;-60
2021/06/02 05:46:58;;;;;;;5.63;3.33;;;21.50;33.90;;;;;;4945827;28;20040;-60
2021/06/02 05:49:30;;;;;;;5.70;2.90;;;21.60;33.30;;;;;;4921239;28;20645;-60
2021/06/02 05:52:22;;;;;;;6.22;3.17;;;21.50;33.50;;;;;;4962076;28;20253;-60
2021/06/02 05:55:11;;;;;;;4.05;3.35;;;21.50;33.10;;;;;;4921666;28;20046;-60
2021/06/02 05:57:48;;;;;;;4.32;2.70;;;21.50;32.90;;;;;;4959519;28;20371;-60
2021/06/02 06:00:45;;;;;;;5.25;3.30;;;21.60;33.40;;;;;;4953760;28;20039;-60
2021/06/02 06:03:29;;;;;;;5.38;3.75;;;21.60;32.90;;;;;;4944051;28;20501;-61
2021/06/02 06:06:42;;;;;;;4.80;4.30;;;21.50;33.10;;;;;;4948036;28;20050;-60
2021/06/02 06:09:45;;;;;;;4.43;3.80;;;21.60;33.50;;;;;;4907483;28;20043;-59
2021/06/02 06:12:17;;;;;;;4.00;3.70;;;21.60;33.20;;;;;;4936682;28;20035;-59
2021/06/02 06:15:16;;;;;;;6.18;4.05;;;21.50;33.20;;;;;;4964806;28;20046;-60
2021/06/02 06:18:12;;;;;;;4.60;4.20;;;21.50;34.50;;;;;;4928376;28;20044;-59
2021/06/02 06:21:10;;;;;;;8.00;4.47;;;21.40;34.20;;;;;;4955959;28;20043;-60
2021/06/02 06:23:45;;;;;;;4.47;3.60;;;21.50;34.40;;;;;;4940683;28;20049;-60
2021/06/02 06:26:24;;;;;;;3.88;3.40;;;21.50;34.30;;;;;;4942139;28;20055;-60
2021/06/02 06:29:10;;;;;;;4.32;3.65;;;21.50;34.40;;;;;;4966407;28;20042;-60
2021/06/02 06:31:39;;;;;;;4.93;4.43;;;21.40;34.30;;;;;;4958807;28;20405;-56
2021/06/02 06:34:10;;;;;;;5.72;3.50;;;21.30;33.90;;;;;;4951353;28;20156;-59
2021/06/02 06:36:38;;;;;;;4.10;3.70;;;21.10;33.50;;;;;;4937528;28;20032;-59
2021/06/02 06:39:12;;;;;;;4.18;3.78;;;21.20;34.00;;;;;;4946191;28;20046;-58
2021/06/02 06:41:39;;;;;;;4.40;3.65;;;21.20;33.90;;;;;;4938237;28;20036;-59
2021/06/02 06:44:07;;;;;;;3.40;3.10;;;21.30;33.90;;;;;;4950970;28;20405;-58
2021/06/02 06:46:36;;;;;;;5.13;4.18;;;21.40;33.60;;;;;;4941587;28;20452;-59
2021/06/02 06:49:03;;;;;;;5.95;3.72;;;21.50;33.80;;;;;;4946560;28;21198;-58
2021/06/02 06:51:30;;;;;;;5.78;3.90;;;21.60;33.60;;;;;;4947103;28;20960;-60
2021/06/02 06:53:57;;;;;;;6.13;3.88;;;21.70;33.30;;;;;;4946709;28;20042;-60
2021/06/02 06:56:26;;;;;;;4.20;3.80;;;21.80;33.20;;;;;;4953003;28;20500;-60
2021/06/02 06:58:52;;;;;;;3.85;3.50;;;21.90;33.20;;;;;;4962372;28;20038;-59
2021/06/02 07:01:19;;;;;;;6.03;5.18;;;22.00;33.40;;;;;;4959113;28;20370;-59
2021/06/02 07:03:45;;;;;;;4.90;4.50;;;22.00;33.60;;;;;;4973502;28;20108;-59
2021/06/02 07:06:13;;;;;;;7.13;4.50;;;22.00;34.00;;;;;;4940425;28;20062;-59
2021/06/02 07:08:43;;;;;;;5.35;4.75;;;22.20;34.00;;;;;;4948118;28;20043;-59
2021/06/02 07:11:08;;;;;;;5.40;4.90;;;22.20;33.70;;;;;;4937931;28;20058;-59
2021/06/02 07:13:35;;;;;;;4.90;4.50;;;22.10;33.70;;;;;;4930720;28;20425;-57
2021/06/02 07:16:02;;;;;;;4.82;4.18;;;22.30;33.80;;;;;;4946615;28;20047;-60
2021/06/02 07:18:31;;;;;;;4.88;4.30;;;22.40;33.60;;;;;;4939105;28;20895;-60
2021/06/02 07:20:59;;;;;;;4.95;4.55;;;22.50;33.40;;;;;;4956304;28;20097;-60
2021/06/02 07:23:26;;;;;;;4.97;4.57;;;22.60;33.60;;;;;;4950928;28;20164;-60
2021/06/02 07:25:52;;;;;;;4.85;4.45;;;22.60;33.40;;;;;;4949788;28;20053;-60
2021/06/02 07:28:26;;;;;;;4.40;4.00;;;22.70;33.60;;;;;;4972579;28;20030;-60
2021/06/02 07:30:52;;;;;;;5.00;4.45;;;22.80;33.90;;;;;;4967248;28;20035;-61
2021/06/02 07:33:17;;;;;;;4.97;4.40;;;22.80;33.50;;;;;;4963554;28;20034;-60
2021/06/02 07:35:43;;;;;;;7.18;5.45;;;22.90;33.60;;;;;;4954422;28;20047;-60
2021/06/02 07:38:09;;;;;;;5.72;5.10;;;22.90;33.40;;;;;;4947317;28;20047;-59
2021/06/02 07:40:35;;;;;;;5.13;4.70;;;22.90;33.40;;;;;;4951998;28;20126;-59
2021/06/02 07:43:00;;;;;;;5.13;4.63;;;22.90;33.60;;;;;;4954835;28;20491;-60
2021/06/02 07:45:26;;;;;;;5.13;4.72;;;22.90;33.30;;;;;;4965500;28;20529;-60
2021/06/02 07:47:51;;;;;;;4.38;4.00;;;22.80;33.10;;;;;;4966606;28;20113;-60
2021/06/02 07:50:17;;;;;;;4.35;3.42;;;22.70;32.50;;;;;;4932068;28;20457;-60
2021/06/02 07:52:43;;;;;;;4.60;4.15;;;22.70;32.90;;;;;;4936859;28;20044;-61
2021/06/02 07:55:09;;;;;;;5.18;3.95;;;22.70;32.50;;;;;;4952718;28;20047;-60
2021/06/02 07:57:35;;;;;;;4.78;3.90;;;22.60;33.00;;;;;;4956062;28;20438;-60
2021/06/02 08:00:01;;;;;;;4.80;4.30;;;22.60;33.30;;;;;;4962583;28;20037;-60
2021/06/02 08:02:27;;;;;;;4.75;4.43;;;22.60;32.80;;;;;;4948731;28;20093;-60
2021/06/02 08:04:52;;;;;;;6.00;5.47;;;22.50;32.90;;;;;;4953914;28;20074;-60
2021/06/02 08:07:18;;;;;;;4.50;4.10;;;22.40;32.80;;;;;;4948267;28;20106;-61
2021/06/02 08:09:45;;;;;;;5.07;4.60;;;22.50;32.80;;;;;;4946114;28;20047;-60
2021/06/02 08:12:11;;;;;;;4.68;4.32;;;22.60;32.20;;;;;;4953752;28;20043;-61
2021/06/02 08:14:38;;;;;;;6.53;5.35;;;22.70;32.50;;;;;;4957282;28;20516;-60
2021/06/02 08:17:04;;;;;;;5.88;5.05;;;22.70;33.00;;;;;;4960941;28;20448;-61
2021/06/02 08:19:29;;;;;;;4.25;3.95;;;22.90;32.80;;;;;;4956200;28;20046;-60
2021/06/02 08:21:55;;;;;;;5.60;5.10;;;22.90;32.10;;;;;;4957921;28;20051;-60
2021/06/02 08:24:22;;;;;;;8.05;5.65;;;23.00;32.10;;;;;;4952912;28;20031;-61
2021/06/02 08:26:48;;;;;;;6.00;5.38;;;23.10;32.50;;;;;;4956715;28;20527;-61
2021/06/02 08:29:13;;;;;;;6.07;5.47;;;23.20;32.20;;;;;;4982651;28;20035;-63
2021/06/02 08:31:39;;;;;;;6.10;5.45;;;23.10;31.90;;;;;;4942439;28;20043;-63
2021/06/02 08:34:05;;;;;;;5.68;5.07;;;23.20;32.20;;;;;;4950867;28;20047;-62
2021/06/02 08:36:32;;;;;;;5.90;5.40;;;23.40;32.30;;;;;;4956492;28;20058;-63
2021/06/02 08:38:57;;;;;;;7.07;5.70;;;23.40;31.80;;;;;;4965335;28;20046;-62
2021/06/02 08:41:23;;;;;;;7.72;5.72;;;23.60;31.90;;;;;;4949761;28;20039;-62
2021/06/02 08:43:49;;;;;;;12.40;6.40;;;23.70;31.70;;;;;;4948077;28;20465;-63
2021/06/02 08:46:16;;;;;;;5.53;5.03;;;23.80;31.50;;;;;;4942731;28;20050;-63
2021/06/02 08:48:49;;;;;;;6.75;6.07;;;23.80;31.70;;;;;;4943602;28;20051;-62
2021/06/02 08:51:19;;;;;;;6.25;5.63;;;23.80;32.60;;;;;;4944559;28;20066;-63
2021/06/02 08:53:49;;;;;;;6.60;6.03;;;23.80;31.60;;;;;;4947881;28;20039;-63
2021/06/02 08:56:15;;;;;;;9.18;6.22;;;23.80;32.00;;;;;;4942432;28;20054;-62
2021/06/02 08:58:40;;;;;;;7.07;6.35;;;23.90;32.10;;;;;;4940755;28;20043;-63
2021/06/02 09:01:06;;;;;;;7.70;6.85;;;23.90;32.40;;;;;;4931698;28;20043;-62
2021/06/02 09:03:32;;;;;;;14.35;13.05;;;24.00;32.10;;;;;;4953977;28;20062;-64
2021/06/02 09:05:59;;;;;;;9.73;8.10;;;24.00;32.40;;;;;;4956445;28;20576;-64
2021/06/02 09:08:27;;;;;;;7.18;6.57;;;23.90;32.00;;;;;;4950563;28;20050;-64
2021/06/02 09:10:54;;;;;;;6.10;5.60;;;24.10;32.90;;;;;;4954238;28;20122;-64
2021/06/02 09:13:23;;;;;;;7.90;7.20;;;24.10;32.10;;;;;;4950865;28;20043;-65
2021/06/02 09:15:53;;;;;;;6.85;6.18;;;24.10;31.90;;;;;;4961688;28;20489;-64
2021/06/02 09:18:21;;;;;;;7.72;7.13;;;24.00;31.40;;;;;;4953704;28;20080;-64
2021/06/02 09:20:56;;;;;;;9.32;7.55;;;24.10;31.40;;;;;;4956580;28;20046;-64
2021/06/02 09:23:38;;;;;;;6.47;5.63;;;24.00;30.00;;;;;;4948659;28;20043;-63
2021/06/02 09:26:39;;;;;;;6.60;5.72;;;24.10;30.40;;;;;;4951807;28;20054;-63
2021/06/02 09:29:13;;;;;;;7.40;5.45;;;24.00;29.30;;;;;;4911525;28;20047;-64
2021/06/02 09:31:40;;;;;;;6.90;6.20;;;23.90;29.90;;;;;;4943473;28;20048;-63
2021/06/02 09:34:06;;;;;;;6.10;5.15;;;24.00;30.00;;;;;;4941841;28;20126;-63
2021/06/02 09:36:39;;;;;;;9.93;5.28;;;24.00;30.10;;;;;;4942077;28;20449;-64
2021/06/02 09:39:10;;;;;;;6.07;5.30;;;24.00;29.10;;;;;;4954466;28;20040;-63
2021/06/02 09:41:45;;;;;;;7.75;5.75;;;24.10;29.20;;;;;;4953166;28;20285;-63
2021/06/02 09:44:21;;;;;;;7.15;6.00;;;23.90;29.60;;;;;;4946220;28;20091;-63
2021/06/02 09:47:38;;;;;;;7.45;6.85;;;24.00;29.40;;;;;;4954221;28;20043;-64
2021/06/02 09:50:04;;;;;;;6.57;5.97;;;24.10;30.80;;;;;;4890763;29;20065;-63
2021/06/02 09:52:50;;;;;;;5.63;5.10;;;24.10;29.90;;;;;;4903041;29;20144;-64
2021/06/02 09:55:27;;;;;;;7.20;5.30;;;24.20;30.30;;;;;;4901787;28;20040;-63
2021/06/02 09:58:10;;;;;;;6.60;5.78;;;24.20;30.10;;;;;;4935864;28;20039;-63
2021/06/02 10:00:39;;;;;;;8.20;5.80;;;24.30;29.00;;;;;;4945247;28;20121;-63
2021/06/02 10:03:13;;;;;;;5.65;5.18;;;;;;;;;;4974857;28;20134;-62
2021/06/02 10:05:40;;;;;;;10.55;6.30;;;24.70;40.90;;;;;;4943009;28;20679;-64
2021/06/02 10:08:07;;;;;;;6.90;6.20;;;24.80;29.20;;;;;;4943161;28;20038;-64
2021/06/02 10:10:33;;;;;;;7.97;7.22;;;24.80;29.30;;;;;;4953002;28;20043;-64
2021/06/02 10:13:06;;;;;;;8.65;7.72;;;24.90;29.00;;;;;;4947777;28;20040;-64
2021/06/02 10:15:50;;;;;;;8.00;7.38;;;24.80;29.50;;;;;;4952046;28;20101;-64
2021/06/02 10:18:29;;;;;;;8.55;7.75;;;24.80;29.10;;;;;;4947199;28;20109;-64
2021/06/02 10:21:03;;;;;;;9.10;7.97;;;24.80;29.80;;;;;;4953706;28;22066;-64
2021/06/02 10:23:39;;;;;;;9.52;8.45;;;24.80;29.70;;;;;;4978588;28;20384;-65
2021/06/02 10:26:07;;;;;;;9.68;8.82;;;24.80;29.60;;;;;;4955023;28;20442;-63
2021/06/02 10:28:33;;;;;;;12.00;8.43;;;24.80;29.80;;;;;;4954561;28;20039;-64
2021/06/02 10:31:00;;;;;;;9.95;6.97;;;24.80;29.50;;;;;;4942318;28;20054;-64
2021/06/02 10:33:28;;;;;;;9.15;8.25;;;24.80;29.40;;;;;;4955725;28;20034;-64
2021/06/02 10:35:55;;;;;;;9.60;8.70;;;24.80;29.30;;;;;;4945725;28;20035;-64
2021/06/02 10:38:22;;;;;;;9.95;9.15;;;24.80;29.70;;;;;;4951003;28;20138;-64
2021/06/02 10:40:48;;;;;;;8.68;7.82;;;25.00;29.60;;;;;;4951528;28;20043;-64
2021/06/02 10:43:23;;;;;;;9.27;7.80;;;25.20;41.20;;;;;;4955663;28;20034;-64
2021/06/02 10:46:05;;;;;;;9.27;8.43;;;25.70;36.90;;;;;;4961871;28;20126;-64
2021/06/02 10:48:48;;;;;;;11.75;9.68;;;25.60;29.00;;;;;;4950595;28;20060;-64
2021/06/02 10:51:31;;;;;;;10.77;9.63;;;25.50;35.90;;;;;;4918576;28;20062;-63
2021/06/02 10:54:10;;;;;;;9.20;8.25;;;25.50;39.40;;;;;;4945968;28;20617;-64
2021/06/02 10:56:37;;;;;;;9.13;7.57;;;25.70;38.60;;;;;;4942592;28;20055;-63
2021/06/02 10:59:27;;;;;;;11.23;10.13;;;25.70;37.80;;;;;;4961108;28;20051;-64
2021/06/02 11:02:13;;;;;;;8.68;7.78;;;25.90;40.00;;;;;;4951392;28;20035;-64
2021/06/02 11:04:56;;;;;;;10.18;8.43;;;26.10;28.70;;;;;;4961317;28;20040;-63
2021/06/02 11:07:32;;;;;;;9.93;9.02;;;26.90;28.60;;;;;;4946743;28;20051;-64
2021/06/02 11:10:12;;;;;;;9.25;8.35;;;26.70;28.10;;;;;;4943852;28;20369;-64
2021/06/02 11:12:47;;;;;;;8.93;7.88;;;27.30;27.90;;;;;;4938816;28;20035;-64
2021/06/02 11:15:34;;;;;;;7.35;6.43;;;27.00;27.90;;;;;;4953831;28;20063;-62
2021/06/02 11:18:12;;;;;;;13.68;9.05;;;27.30;27.50;;;;;;4952315;28;20046;-64
2021/06/02 11:20:43;;;;;;;12.55;9.07;;;27.10;27.90;;;;;;4982365;28;20043;-63
2021/06/02 11:23:11;;;;;;;8.55;7.75;;;27.30;27.30;;;;;;4944906;28;20038;-64
2021/06/02 11:25:37;;;;;;;8.52;7.72;;;27.00;27.50;;;;;;4939628;28;20047;-63
2021/06/02 11:28:06;;;;;;;7.78;7.07;;;26.80;27.90;;;;;;4944722;28;20059;-64
2021/06/02 11:30:33;;;;;;;7.53;6.82;;;26.80;28.10;;;;;;4955801;28;20039;-64
2021/06/02 11:33:09;;;;;;;8.45;7.10;;;26.60;28.00;;;;;;4934848;28;20127;-64
2021/06/02 11:35:58;;;;;;;8.77;7.88;;;26.70;28.20;;;;;;4961077;28;20039;-63
2021/06/02 11:38:25;;;;;;;7.75;7.05;;;26.80;27.80;;;;;;4923140;28;20529;-63
2021/06/02 11:40:52;;;;;;;8.73;7.80;;;27.40;27.80;;;;;;4943895;28;20043;-63
2021/06/02 11:43:19;;;;;;;7.60;6.90;;;27.80;27.30;;;;;;4939742;28;20097;-63
2021/06/02 11:45:47;;;;;;;9.52;6.95;;;28.00;27.30;;;;;;4946987;28;20130;-63
2021/06/02 11:48:19;;;;;;;7.10;6.57;;;27.80;27.30;;;;;;4954823;28;20117;-63
2021/06/02 11:50:45;;;;;;;7.20;6.50;;;27.70;27.30;;;;;;4947860;28;20036;-64
2021/06/02 11:53:11;;;;;;;12.10;6.90;;;28.30;27.30;;;;;;4951692;28;20034;-64
2021/06/02 11:55:38;;;;;;;7.68;6.03;;;28.20;27.20;;;;;;4942810;28;20571;-63
2021/06/02 11:58:04;;;;;;;11.52;9.43;;;28.10;27.40;;;;;;4941678;28;20058;-64
2021/06/02 12:00:34;;;;;;;6.70;6.20;;;28.20;27.10;;;;;;4947388;28;20531;-64
2021/06/02 12:03:11;;;;;;;7.70;7.03;;;28.00;27.40;;;;;;4937940;28;20047;-64
2021/06/02 12:05:42;;;;;;;7.55;6.85;;;28.20;26.90;;;;;;4943722;28;20829;-64
2021/06/02 12:08:16;;;;;;;8.20;7.50;;;28.20;26.90;;;;;;4947411;28;20511;-64
2021/06/02 12:10:49;;;;;;;6.50;5.85;;;27.80;26.80;;;;;;4946227;28;20043;-63
2021/06/02 12:13:21;;;;;;;7.90;7.20;;;27.70;27.50;;;;;;4939452;28;20036;-64
2021/06/02 12:15:56;;;;;;;5.60;5.10;;;27.60;27.30;;;;;;4942348;28;20345;-64
2021/06/02 12:18:40;;;;;;;6.35;5.75;;;27.60;27.20;;;;;;4939210;28;20119;-65
2021/06/02 12:21:31;;;;;;;7.05;5.43;;;27.80;26.50;;;;;;4948727;28;20050;-63
2021/06/02 12:24:06;;;;;;;7.25;5.53;;;27.90;26.80;;;;;;4953752;28;20727;-64
2021/06/02 12:26:41;;;;;;;5.55;5.10;;;27.90;26.60;;;;;;4950289;28;20468;-65
2021/06/02 12:29:10;;;;;;;8.63;7.82;;;27.70;27.20;;;;;;4949305;28;20109;-64
2021/06/02 12:31:35;;;;;;;8.38;7.68;;;27.50;27.60;;;;;;4951246;28;20043;-63
2021/06/02 12:34:13;;;;;;;7.75;6.97;;;27.60;28.00;;;;;;4955884;28;20130;-65
2021/06/02 12:36:44;;;;;;;8.32;6.65;;;27.60;28.40;;;;;;4942657;28;20051;-62
2021/06/02 12:39:12;;;;;;;7.25;6.57;;;27.60;28.50;;;;;;4938180;28;20031;-63
2021/06/02 12:41:42;;;;;;;7.68;6.95;;;27.50;28.40;;;;;;4936438;28;20063;-63
2021/06/02 12:44:08;;;;;;;8.32;6.70;;;27.50;28.80;;;;;;4945017;28;20044;-63
2021/06/02 12:46:33;;;;;;;7.95;7.20;;;27.40;28.80;;;;;;4940024;28;20051;-64
2021/06/02 12:49:03;;;;;;;7.60;6.82;;;27.50;28.70;;;;;;4941240;28;20086;-63
2021/06/02 12:51:29;;;;;;;6.65;5.20;;;27.40;28.60;;;;;;4951654;28;20042;-64
2021/06/02 12:53:55;;;;;;;6.50;5.85;;;27.30;28.70;;;;;;4944475;28;22787;-64
2021/06/02 12:56:21;;;;;;;7.07;6.25;;;27.00;29.00;;;;;;4948149;28;20132;-63
2021/06/02 12:58:55;;;;;;;6.40;5.72;;;26.80;29.00;;;;;;4938068;28;20792;-64
2021/06/02 13:01:26;;;;;;;6.65;6.05;;;26.90;29.10;;;;;;4933339;28;20117;-64
2021/06/02 13:03:54;;;;;;;6.85;6.20;;;26.80;28.90;;;;;;4940516;28;20512;-64
2021/06/02 13:06:23;;;;;;;6.85;5.95;;;26.70;29.00;;;;;;4937553;28;20051;-63
2021/06/02 13:08:49;;;;;;;7.07;6.40;;;26.70;29.00;;;;;;4947731;28;20125;-64
2021/06/02 13:11:28;;;;;;;6.18;5.63;;;26.60;29.10;;;;;;4946562;28;20045;-64
2021/06/02 13:13:55;;;;;;;7.10;6.45;;;26.60;29.10;;;;;;4941771;28;20035;-64
2021/06/02 13:16:21;;;;;;;6.82;5.78;;;26.50;29.10;;;;;;4947301;28;20047;-64
2021/06/02 13:19:05;;;;;;;10.70;7.28;;;26.60;29.00;;;;;;4956282;28;20107;-64
2021/06/02 13:21:32;;;;;;;7.95;5.72;;;26.80;28.80;;;;;;4958569;28;20047;-65
2021/06/02 13:24:12;;;;;;;6.88;5.50;;;26.80;28.60;;;;;;4956731;28;20113;-65
2021/06/02 13:26:39;;;;;;;6.18;5.20;;;26.90;28.80;;;;;;4948245;28;20408;-64
2021/06/02 13:29:09;;;;;;;4.97;4.45;;;27.50;28.20;;;;;;4961756;28;20031;-64
2021/06/02 13:31:38;;;;;;;7.80;4.10;;;28.70;26.90;;;;;;4950508;28;20087;-68
2021/06/02 13:34:04;;;;;;;6.38;3.70;;;30.40;24.90;;;;;;4943058;28;20037;-64
2021/06/02 13:36:31;;;;;;;4.63;4.20;;;31.80;24.20;;;;;;4945276;28;20043;-63
2021/06/02 13:39:14;;;;;;;5.35;4.85;;;32.40;24.30;;;;;;4952602;28;20050;-65
2021/06/02 13:41:41;;;;;;;3.50;3.20;;;32.40;23.10;;;;;;4945267;28;20046;-63
2021/06/02 13:44:09;;;;;;;5.07;3.30;;;31.60;23.50;;;;;;4951524;28;20054;-63
2021/06/02 13:46:34;;;;;;;3.88;3.45;;;31.00;23.80;;;;;;4955087;28;20048;-64
2021/06/02 13:49:00;;;;;;;3.35;3.00;;;30.20;24.20;;;;;;4947194;28;20046;-64
2021/06/02 13:51:33;;;;;;;3.15;2.80;;;29.70;24.20;;;;;;4943463;28;20055;-64
2021/06/02 13:54:02;;;;;;;2.38;2.17;;;29.60;23.70;;;;;;4946270;28;20083;-63
2021/06/02 13:56:43;;;;;;;3.17;2.63;;;29.30;24.00;;;;;;4961567;28;20051;-64
2021/06/02 13:59:10;;;;;;;2.67;2.35;;;29.00;24.00;;;;;;4963485;28;20042;-62
2021/06/02 14:01:36;;;;;;;2.20;2.08;;;28.80;24.50;;;;;;4949227;28;20118;-63
2021/06/02 14:04:04;;;;;;;2.72;2.53;;;28.90;24.00;;;;;;4944413;28;20504;-63
2021/06/02 14:06:30;;;;;;;2.10;2.00;;;29.30;23.30;;;;;;4948948;28;20083;-62
2021/06/02 14:08:56;;;;;;;2.28;1.98;;;29.50;23.20;;;;;;4943142;28;20047;-62
2021/06/02 14:11:26;;;;;;;1.73;1.58;;;29.40;22.40;;;;;;4953140;28;20046;-63
2021/06/02 14:13:53;;;;;;;2.50;2.25;;;29.30;23.00;;;;;;4937110;28;20047;-64
2021/06/02 14:16:21;;;;;;;2.25;1.90;;;28.70;23.40;;;;;;4947930;28;20082;-63
2021/06/02 14:18:58;;;;;;;2.05;1.95;;;28.40;23.60;;;;;;4941209;28;20070;-63
2021/06/02 14:21:24;;;;;;;1.90;1.77;;;28.40;22.90;;;;;;4940213;28;20039;-63
2021/06/02 14:23:51;;;;;;;2.70;2.08;;;28.80;22.70;;;;;;4942543;28;20035;-62
2021/06/02 14:26:17;;;;;;;3.08;2.33;;;29.10;22.40;;;;;;4944541;28;20043;-63
2021/06/02 14:28:44;;;;;;;2.28;2.17;;;29.30;22.70;;;;;;4957032;28;20121;-63
2021/06/02 14:31:10;;;;;;;2.22;2.13;;;29.70;22.40;;;;;;4969448;28;20039;-64
2021/06/02 14:33:37;;;;;;;3.67;2.20;;;29.90;22.30;;;;;;4954543;28;20527;-64
2021/06/02 14:36:04;;;;;;;4.15;2.35;;;30.00;22.50;;;;;;4955179;28;20039;-62
2021/06/02 14:38:30;;;;;;;2.80;2.60;;;29.30;22.10;;;;;;4964356;28;20039;-62
2021/06/02 14:40:57;;;;;;;2.50;2.30;;;29.80;21.30;;;;;;4947266;28;20110;-62
2021/06/02 14:43:24;;;;;;;2.92;2.72;;;30.30;21.20;;;;;;4960472;28;20499;-62
2021/06/02 14:45:50;;;;;;;3.55;2.25;;;31.50;21.50;;;;;;4952845;28;20062;-62
2021/06/02 14:48:16;;;;;;;2.30;2.20;;;30.70;20.70;;;;;;4989155;28;20401;-62
2021/06/02 14:50:41;;;;;;;2.45;2.25;;;30.10;21.90;;;;;;4963702;28;20156;-62
2021/06/02 14:53:07;;;;;;;2.80;2.60;;;29.50;22.40;;;;;;4946260;28;20059;-62
2021/06/02 14:55:33;;;;;;;3.45;2.20;;;28.90;22.90;;;;;;4952799;28;20039;-62
2021/06/02 14:57:59;;;;;;;3.42;2.83;;;28.60;23.10;;;;;;4943435;28;20489;-63
2021/06/02 15:00:29;;;;;;;3.20;2.50;;;28.30;23.40;;;;;;4949026;28;20042;-63
2021/06/02 15:02:54;;;;;;;2.20;2.00;;;28.50;23.50;;;;;;4954040;28;20051;-63
2021/06/02 15:05:20;;;;;;;2.05;1.90;;;28.20;23.20;;;;;;4943117;28;20054;-63
2021/06/02 15:07:46;;;;;;;3.90;3.60;;;27.80;23.40;;;;;;4981077;28;20039;-62
2021/06/02 15:10:12;;;;;;;3.05;2.40;;;27.80;23.30;;;;;;4959890;28;20036;-63
2021/06/02 15:12:38;;;;;;;2.55;2.17;;;27.80;23.20;;;;;;4941711;28;20067;-61
2021/06/02 15:15:06;;;;;;;2.55;1.63;;;27.80;23.40;;;;;;4970109;28;20197;-63
2021/06/02 15:17:32;;;;;;;1.95;1.67;;;28.00;22.90;;;;;;4943233;28;20035;-63
2021/06/02 15:19:58;;;;;;;2.10;2.00;;;28.40;22.80;;;;;;4951575;28;20046;-63
2021/06/02 15:22:24;;;;;;;2.10;2.00;;;28.30;22.70;;;;;;4951263;28;20043;-63
2021/06/02 15:24:50;;;;;;;2.08;1.88;;;28.60;22.80;;;;;;4956502;28;20039;-63
2021/06/02 15:27:17;;;;;;;2.05;1.90;;;28.60;22.60;;;;;;4950253;28;20043;-63
2021/06/02 15:29:54;;;;;;;2.17;1.90;;;28.70;22.70;;;;;;4952916;28;20089;-62
2021/06/02 15:32:25;;;;;;;2.33;1.60;;;28.10;22.00;;;;;;4970762;28;20034;-63
2021/06/02 15:34:52;;;;;;;1.88;1.70;;;28.00;22.40;;;;;;4948990;28;20105;-63
2021/06/02 15:37:30;;;;;;;2.78;1.77;;;27.80;22.40;;;;;;4956718;28;20023;-62
2021/06/02 15:40:00;;;;;;;1.60;1.50;;;27.70;22.80;;;;;;4959625;28;20077;-63
2021/06/02 15:42:26;;;;;;;2.97;1.55;;;27.60;22.90;;;;;;4960164;28;20039;-63
2021/06/02 15:44:53;;;;;;;84.07;8.48;;;27.50;23.00;;;;;;4961768;28;20138;-65
2021/06/02 15:47:21;;;;;;;20.80;3.38;;;27.60;23.50;;;;;;4950674;28;20054;-60
2021/06/02 15:49:47;;;;;;;3.70;1.95;;;27.40;22.80;;;;;;4945083;28;20042;-65
2021/06/02 15:52:14;;;;;;;1.65;1.55;;;27.20;23.10;;;;;;4958828;28;20067;-65
2021/06/02 15:54:49;;;;;;;2.17;1.75;;;27.20;23.20;;;;;;4951238;28;20531;-65
2021/06/02 15:57:21;;;;;;;3.25;1.45;;;27.10;22.90;;;;;;4955327;28;20035;-65
2021/06/02 15:59:48;;;;;;;3.20;1.48;;;27.30;23.40;;;;;;4951111;28;20122;-66
2021/06/02 16:02:15;;;;;;;1.85;1.33;;;27.50;23.30;;;;;;4950885;28;20042;-65
2021/06/02 16:04:45;;;;;;;1.38;1.33;;;27.40;22.60;;;;;;4957632;28;20090;-66
2021/06/02 16:07:13;;;;;;;2.38;1.30;;;27.20;23.00;;;;;;4946031;28;20047;-62
2021/06/02 16:09:39;;;;;;;1.90;1.38;;;27.20;23.50;;;;;;4948099;28;20083;-62
2021/06/02 16:12:06;;;;;;;1.77;1.65;;;27.00;23.20;;;;;;4939398;28;20111;-64
2021/06/02 16:14:34;;;;;;;3.80;1.75;;;26.90;23.40;;;;;;4950710;28;20043;-63
2021/06/02 16:16:59;;;;;;;6.10;1.90;;;26.80;23.90;;;;;;4943642;28;20046;-62
2021/06/02 16:19:25;;;;;;;5.38;1.63;;;26.60;24.30;;;;;;4939315;28;20043;-62
2021/06/02 16:21:51;;;;;;;1.63;1.40;;;26.50;24.00;;;;;;4946116;28;20031;-63
2021/06/02 16:24:17;;;;;;;1.90;1.58;;;26.20;25.00;;;;;;4972293;28;20149;-63
2021/06/02 16:26:45;;;;;;;1.55;1.45;;;26.10;24.80;;;;;;4959600;28;20047;-63
2021/06/02 16:29:12;;;;;;;1.65;1.52;;;26.10;25.00;;;;;;4957905;28;20473;-62
2021/06/02 16:31:39;;;;;;;1.83;1.63;;;26.00;25.00;;;;;;4951366;28;20404;-63
2021/06/02 16:34:05;;;;;;;2.10;1.90;;;25.90;24.60;;;;;;4946393;28;20050;-63
2021/06/02 16:36:33;;;;;;;4.55;4.13;;;26.10;24.90;;;;;;4941714;28;20062;-64
2021/06/02 16:39:00;;;;;;;2.97;2.25;;;26.10;24.60;;;;;;4944024;28;20043;-63
2021/06/02 16:41:26;;;;;;;7.95;6.75;;;26.10;25.20;;;;;;4941409;28;20045;-63
2021/06/02 16:43:55;;;;;;;5.55;5.05;;;26.10;25.20;;;;;;4933675;28;20058;-63
2021/06/02 16:46:21;;;;;;;6.43;5.82;;;26.20;25.40;;;;;;4958439;28;20056;-62
2021/06/02 16:48:46;;;;;;;26.48;23.73;;;26.20;25.60;;;;;;4944251;28;20046;-62
2021/06/02 16:51:19;;;;;;;45.85;38.95;;;26.10;25.20;;;;;;4936298;28;20126;-62
2021/06/02 16:53:46;;;;;;;16.30;14.65;;;26.10;25.50;;;;;;4938264;28;20054;-62
2021/06/02 16:56:15;;;;;;;3.97;3.53;;;26.10;25.30;;;;;;4934839;28;20035;-62
2021/06/02 16:58:42;;;;;;;9.75;3.15;;;25.80;24.40;;;;;;4953161;28;20058;-63
2021/06/02 17:01:10;;;;;;;6.43;1.67;;;25.70;24.90;;;;;;4963042;28;20042;-63
2021/06/02 17:03:36;;;;;;;13.93;8.32;;;25.60;24.70;;;;;;4944910;28;20042;-63
2021/06/02 17:06:05;;;;;;;3.95;3.65;;;25.60;25.30;;;;;;4929547;28;20059;-63
2021/06/02 17:08:32;;;;;;;5.95;5.40;;;25.60;25.10;;;;;;4936166;28;20126;-63
2021/06/02 17:10:59;;;;;;;5.70;4.53;;;25.40;25.60;;;;;;4932794;28;20048;-63
2021/06/02 17:13:26;;;;;;;6.32;5.72;;;25.50;25.40;;;;;;4942898;28;20122;-63
2021/06/02 17:15:52;;;;;;;10.32;8.65;;;25.50;25.60;;;;;;4941174;28;20130;-64
2021/06/02 17:18:27;;;;;;;6.50;5.70;;;25.50;25.80;;;;;;4938034;28;20119;-63
2021/06/02 17:21:00;;;;;;;6.50;5.47;;;25.50;25.80;;;;;;4934724;28;20043;-63
2021/06/02 17:23:30;;;;;;;4.97;3.28;;;25.20;25.70;;;;;;4969045;28;20039;-71
2021/06/02 17:25:57;;;;;;;6.82;5.20;;;25.20;26.40;;;;;;4940775;28;20587;-64
2021/06/02 17:28:25;;;;;;;11.15;9.38;;;25.20;26.80;;;;;;4960567;28;20039;-63
2021/06/02 17:30:50;;;;;;;8.63;4.38;;;25.30;27.10;;;;;;4941749;28;20031;-63
2021/06/02 17:33:16;;;;;;;6.22;4.88;;;25.30;27.10;;;;;;4945841;28;20396;-63
2021/06/02 17:35:42;;;;;;;14.93;10.25;;;25.20;27.20;;;;;;4947899;28;20050;-63
2021/06/02 17:38:08;;;;;;;12.70;8.48;;;25.20;27.60;;;;;;4952150;28;20118;-64
2021/06/02 17:40:35;;;;;;;14.45;10.27;;;25.20;27.60;;;;;;4949904;28;20031;-63
2021/06/02 17:43:02;;;;;;;10.48;9.15;;;25.10;27.40;;;;;;4945190;28;20039;-63
2021/06/02 17:45:28;;;;;;;14.05;9.23;;;25.00;27.60;;;;;;4953711;28;20614;-63
2021/06/02 17:47:55;;;;;;;7.40;5.65;;;24.90;27.80;;;;;;4956164;28;20072;-63
2021/06/02 17:50:21;;;;;;;4.40;4.00;;;24.90;28.10;;;;;;4951342;28;20035;-64
2021/06/02 17:53:01;;;;;;;8.25;5.50;;;24.90;28.00;;;;;;4928221;28;20039;-65
2021/06/02 17:55:29;;;;;;;6.50;5.80;;;25.00;29.20;;;;;;4944066;28;20036;-63